sensor_id;sensor_type;location;lat;lon;timestamp;P1;durP1;ratioP1;P2;durP2;ratioP2
10717;SDS011;13513;42.700;23.124;2023-05-10T00:01:13;11.80;;;8.60;;
10717;SDS011;13513;42.700;23.124;2023-05-10T00:03:44;10.53;;;7.83;;
10717;SDS011;13513;42.700;23.124;2023-05-10T00:06:15;10.30;;;8.10;;
10717;SDS011;13513;42.700;23.124;2023-05-10T00:08:49;9.43;;;7.33;;
10717;SDS011;13513;42.700;23.124;2023-05-10T00:11:21;10.23;;;7.90;;
10717;SDS011;13513;42.700;23.124;2023-05-10T00:13:51;8.50;;;7.33;;
10717;SDS011;13513;42.700;23.124;2023-05-10T00:16:22;7.73;;;6.23;;
10717;SDS011;13513;42.700;23.124;2023-05-10T00:18:53;8.57;;;7.33;;
10717;SDS011;13513;42.700;23.124;2023-05-10T00:21:27;8.03;;;6.07;;
10717;SDS011;13513;42.700;23.124;2023-05-10T00:23:59;6.63;;;5.73;;
10717;SDS011;13513;42.700;23.124;2023-05-10T00:26:30;7.57;;;6.47;;
10717;SDS011;13513;42.700;23.124;2023-05-10T00:29:01;8.10;;;6.20;;
10717;SDS011;13513;42.700;23.124;2023-05-10T00:31:32;7.50;;;6.37;;
10717;SDS011;13513;42.700;23.124;2023-05-10T00:34:03;12.87;;;8.53;;
10717;SDS011;13513;42.700;23.124;2023-05-10T00:36:34;10.77;;;6.60;;
10717;SDS011;13513;42.700;23.124;2023-05-10T00:39:05;9.00;;;7.13;;
10717;SDS011;13513;42.700;23.124;2023-05-10T00:41:36;10.70;;;6.70;;
10717;SDS011;13513;42.700;23.124;2023-05-10T00:44:07;15.50;;;12.03;;
10717;SDS011;13513;42.700;23.124;2023-05-10T00:46:38;14.27;;;7.07;;
10717;SDS011;13513;42.700;23.124;2023-05-10T00:49:09;9.47;;;7.13;;
10717;SDS011;13513;42.700;23.124;2023-05-10T00:51:40;7.20;;;6.00;;
10717;SDS011;13513;42.700;23.124;2023-05-10T00:54:11;10.83;;;9.10;;
10717;SDS011;13513;42.700;23.124;2023-05-10T00:56:43;7.10;;;6.40;;
10717;SDS011;13513;42.700;23.124;2023-05-10T00:59:15;7.77;;;6.87;;
10717;SDS011;13513;42.700;23.124;2023-05-10T01:01:46;8.33;;;7.13;;
10717;SDS011;13513;42.700;23.124;2023-05-10T01:04:17;8.93;;;6.57;;
10717;SDS011;13513;42.700;23.124;2023-05-10T01:06:47;9.13;;;7.27;;
10717;SDS011;13513;42.700;23.124;2023-05-10T01:09:19;6.90;;;6.20;;
10717;SDS011;13513;42.700;23.124;2023-05-10T01:11:50;6.47;;;5.87;;
10717;SDS011;13513;42.700;23.124;2023-05-10T01:14:25;7.70;;;6.90;;
10717;SDS011;13513;42.700;23.124;2023-05-10T01:16:57;15.50;;;7.57;;
10717;SDS011;13513;42.700;23.124;2023-05-10T01:19:29;8.57;;;7.40;;
10717;SDS011;13513;42.700;23.124;2023-05-10T01:34:13;8.07;;;6.67;;
10717;SDS011;13513;42.700;23.124;2023-05-10T01:36:48;9.23;;;8.23;;
10717;SDS011;13513;42.700;23.124;2023-05-10T01:39:25;9.43;;;7.47;;
10717;SDS011;13513;42.700;23.124;2023-05-10T01:41:58;8.77;;;7.73;;
10717;SDS011;13513;42.700;23.124;2023-05-10T01:44:34;8.10;;;7.20;;
10717;SDS011;13513;42.700;23.124;2023-05-10T01:47:12;9.20;;;8.30;;
10717;SDS011;13513;42.700;23.124;2023-05-10T01:50:01;8.77;;;7.73;;
10717;SDS011;13513;42.700;23.124;2023-05-10T01:52:36;9.70;;;8.00;;
10717;SDS011;13513;42.700;23.124;2023-05-10T01:55:09;10.83;;;9.03;;
10717;SDS011;13513;42.700;23.124;2023-05-10T01:57:43;8.93;;;7.93;;
10717;SDS011;13513;42.700;23.124;2023-05-10T02:00:16;8.80;;;7.90;;
10717;SDS011;13513;42.700;23.124;2023-05-10T02:02:49;9.00;;;8.10;;
10717;SDS011;13513;42.700;23.124;2023-05-10T02:05:20;9.60;;;8.60;;
10717;SDS011;13513;42.700;23.124;2023-05-10T02:07:52;10.93;;;8.57;;
10717;SDS011;13513;42.700;23.124;2023-05-10T02:10:23;12.53;;;11.00;;
10717;SDS011;13513;42.700;23.124;2023-05-10T02:12:55;10.53;;;9.43;;
10717;SDS011;13513;42.700;23.124;2023-05-10T02:15:28;8.47;;;7.60;;
10717;SDS011;13513;42.700;23.124;2023-05-10T02:18:00;8.87;;;7.97;;
10717;SDS011;13513;42.700;23.124;2023-05-10T02:20:33;8.57;;;7.73;;
10717;SDS011;13513;42.700;23.124;2023-05-10T02:23:06;8.37;;;7.47;;
10717;SDS011;13513;42.700;23.124;2023-05-10T02:25:38;8.07;;;7.27;;
10717;SDS011;13513;42.700;23.124;2023-05-10T02:28:10;8.37;;;7.47;;
10717;SDS011;13513;42.700;23.124;2023-05-10T02:30:42;8.23;;;7.43;;
10717;SDS011;13513;42.700;23.124;2023-05-10T02:33:13;7.53;;;6.07;;
10717;SDS011;13513;42.700;23.124;2023-05-10T02:35:45;5.70;;;5.20;;
10717;SDS011;13513;42.700;23.124;2023-05-10T02:38:16;6.10;;;5.50;;
10717;SDS011;13513;42.700;23.124;2023-05-10T02:40:51;6.77;;;6.10;;
10717;SDS011;13513;42.700;23.124;2023-05-10T02:43:23;7.27;;;5.73;;
10717;SDS011;13513;42.700;23.124;2023-05-10T02:45:54;7.17;;;5.47;;
10717;SDS011;13513;42.700;23.124;2023-05-10T02:48:26;5.80;;;5.30;;
10717;SDS011;13513;42.700;23.124;2023-05-10T02:50:59;5.63;;;5.00;;
10717;SDS011;13513;42.700;23.124;2023-05-10T02:53:32;5.73;;;5.20;;
10717;SDS011;13513;42.700;23.124;2023-05-10T02:56:11;4.93;;;4.43;;
10717;SDS011;13513;42.700;23.124;2023-05-10T02:58:38;5.43;;;4.70;;
10717;SDS011;13513;42.700;23.124;2023-05-10T03:01:08;7.13;;;5.07;;
10717;SDS011;13513;42.700;23.124;2023-05-10T03:03:39;5.60;;;5.03;;
10717;SDS011;13513;42.700;23.124;2023-05-10T03:06:11;6.43;;;5.70;;
10717;SDS011;13513;42.700;23.124;2023-05-10T03:08:42;6.40;;;5.57;;
10717;SDS011;13513;42.700;23.124;2023-05-10T03:16:40;6.97;;;5.87;;
10717;SDS011;13513;42.700;23.124;2023-05-10T03:20:08;6.30;;;5.47;;
10717;SDS011;13513;42.700;23.124;2023-05-10T03:21:59;6.27;;;5.20;;
10717;SDS011;13513;42.700;23.124;2023-05-10T03:24:31;7.23;;;5.93;;
10717;SDS011;13513;42.700;23.124;2023-05-10T03:27:06;7.20;;;5.33;;
10717;SDS011;13513;42.700;23.124;2023-05-10T03:29:39;7.87;;;6.10;;
10717;SDS011;13513;42.700;23.124;2023-05-10T03:32:13;7.33;;;5.40;;
10717;SDS011;13513;42.700;23.124;2023-05-10T03:34:43;10.23;;;5.53;;
10717;SDS011;13513;42.700;23.124;2023-05-10T03:37:14;7.37;;;5.83;;
10717;SDS011;13513;42.700;23.124;2023-05-10T03:39:45;6.57;;;5.70;;
10717;SDS011;13513;42.700;23.124;2023-05-10T03:42:16;6.70;;;5.60;;
10717;SDS011;13513;42.700;23.124;2023-05-10T03:44:46;7.43;;;5.70;;
10717;SDS011;13513;42.700;23.124;2023-05-10T03:47:18;6.10;;;5.50;;
10717;SDS011;13513;42.700;23.124;2023-05-10T03:49:47;6.97;;;5.83;;
10717;SDS011;13513;42.700;23.124;2023-05-10T03:52:20;6.80;;;5.80;;
10717;SDS011;13513;42.700;23.124;2023-05-10T03:54:51;8.60;;;5.67;;
10717;SDS011;13513;42.700;23.124;2023-05-10T03:57:22;7.87;;;5.43;;
10717;SDS011;13513;42.700;23.124;2023-05-10T03:59:53;7.07;;;5.70;;
10717;SDS011;13513;42.700;23.124;2023-05-10T04:02:24;8.33;;;6.00;;
10717;SDS011;13513;42.700;23.124;2023-05-10T04:04:55;7.87;;;5.70;;
10717;SDS011;13513;42.700;23.124;2023-05-10T04:07:26;6.93;;;6.07;;
10717;SDS011;13513;42.700;23.124;2023-05-10T04:09:57;10.47;;;5.63;;
10717;SDS011;13513;42.700;23.124;2023-05-10T04:12:27;7.17;;;5.50;;
10717;SDS011;13513;42.700;23.124;2023-05-10T04:14:58;7.33;;;5.53;;
10717;SDS011;13513;42.700;23.124;2023-05-10T04:17:29;6.17;;;5.57;;
10717;SDS011;13513;42.700;23.124;2023-05-10T04:20:00;6.47;;;5.53;;
10717;SDS011;13513;42.700;23.124;2023-05-10T04:22:31;7.10;;;5.90;;
10717;SDS011;13513;42.700;23.124;2023-05-10T04:25:05;9.03;;;6.97;;
10717;SDS011;13513;42.700;23.124;2023-05-10T04:27:36;6.40;;;5.80;;
10717;SDS011;13513;42.700;23.124;2023-05-10T04:30:07;6.37;;;5.63;;
10717;SDS011;13513;42.700;23.124;2023-05-10T04:32:39;9.60;;;5.97;;
10717;SDS011;13513;42.700;23.124;2023-05-10T04:35:10;7.93;;;5.80;;
10717;SDS011;13513;42.700;23.124;2023-05-10T04:37:41;6.37;;;5.77;;
10717;SDS011;13513;42.700;23.124;2023-05-10T04:40:12;6.60;;;5.90;;
10717;SDS011;13513;42.700;23.124;2023-05-10T04:42:43;8.73;;;5.80;;
10717;SDS011;13513;42.700;23.124;2023-05-10T04:45:14;6.53;;;5.80;;
10717;SDS011;13513;42.700;23.124;2023-05-10T04:47:45;7.83;;;6.67;;
10717;SDS011;13513;42.700;23.124;2023-05-10T04:50:15;10.00;;;5.63;;
10717;SDS011;13513;42.700;23.124;2023-05-10T04:52:46;10.33;;;6.00;;
10717;SDS011;13513;42.700;23.124;2023-05-10T04:55:17;8.33;;;6.03;;
10717;SDS011;13513;42.700;23.124;2023-05-10T04:57:48;8.00;;;6.37;;
10717;SDS011;13513;42.700;23.124;2023-05-10T05:00:19;8.00;;;6.87;;
10717;SDS011;13513;42.700;23.124;2023-05-10T05:02:49;7.60;;;6.80;;
10717;SDS011;13513;42.700;23.124;2023-05-10T05:05:20;7.37;;;6.30;;
10717;SDS011;13513;42.700;23.124;2023-05-10T05:07:51;7.67;;;6.60;;
10717;SDS011;13513;42.700;23.124;2023-05-10T05:10:21;10.47;;;6.60;;
10717;SDS011;13513;42.700;23.124;2023-05-10T05:12:53;7.10;;;6.40;;
10717;SDS011;13513;42.700;23.124;2023-05-10T05:15:23;9.47;;;7.50;;
10717;SDS011;13513;42.700;23.124;2023-05-10T05:17:54;8.50;;;6.57;;
10717;SDS011;13513;42.700;23.124;2023-05-10T05:20:24;7.53;;;6.40;;
10717;SDS011;13513;42.700;23.124;2023-05-10T05:22:56;10.43;;;7.27;;
10717;SDS011;13513;42.700;23.124;2023-05-10T05:25:27;8.43;;;6.50;;
10717;SDS011;13513;42.700;23.124;2023-05-10T05:27:57;9.17;;;7.37;;
10717;SDS011;13513;42.700;23.124;2023-05-10T05:30:28;9.77;;;8.77;;
10717;SDS011;13513;42.700;23.124;2023-05-10T05:32:59;9.30;;;7.07;;
10717;SDS011;13513;42.700;23.124;2023-05-10T05:35:30;11.00;;;7.40;;
10717;SDS011;13513;42.700;23.124;2023-05-10T05:38:01;8.33;;;7.30;;
10717;SDS011;13513;42.700;23.124;2023-05-10T05:40:32;8.53;;;7.03;;
10717;SDS011;13513;42.700;23.124;2023-05-10T05:43:03;9.20;;;7.70;;
10717;SDS011;13513;42.700;23.124;2023-05-10T05:45:33;8.07;;;7.17;;
10717;SDS011;13513;42.700;23.124;2023-05-10T05:48:04;9.37;;;7.07;;
10717;SDS011;13513;42.700;23.124;2023-05-10T05:50:34;9.70;;;7.60;;
10717;SDS011;13513;42.700;23.124;2023-05-10T05:53:05;13.50;;;7.43;;
10717;SDS011;13513;42.700;23.124;2023-05-10T05:55:36;12.03;;;8.07;;
10717;SDS011;13513;42.700;23.124;2023-05-10T05:58:09;12.27;;;7.77;;
10717;SDS011;13513;42.700;23.124;2023-05-10T06:00:39;11.03;;;7.80;;
10717;SDS011;13513;42.700;23.124;2023-05-10T06:03:10;10.87;;;7.87;;
10717;SDS011;13513;42.700;23.124;2023-05-10T06:05:41;12.03;;;8.47;;
10717;SDS011;13513;42.700;23.124;2023-05-10T06:08:11;11.63;;;8.73;;
10717;SDS011;13513;42.700;23.124;2023-05-10T06:10:42;8.77;;;7.73;;
10717;SDS011;13513;42.700;23.124;2023-05-10T06:13:14;10.77;;;8.27;;
10717;SDS011;13513;42.700;23.124;2023-05-10T06:15:45;10.57;;;7.97;;
10717;SDS011;13513;42.700;23.124;2023-05-10T06:18:16;9.80;;;8.10;;
10717;SDS011;13513;42.700;23.124;2023-05-10T06:20:46;11.97;;;8.30;;
10717;SDS011;13513;42.700;23.124;2023-05-10T06:23:18;12.00;;;8.13;;
10717;SDS011;13513;42.700;23.124;2023-05-10T06:25:48;10.40;;;8.17;;
10717;SDS011;13513;42.700;23.124;2023-05-10T06:28:19;11.23;;;8.17;;
10717;SDS011;13513;42.700;23.124;2023-05-10T06:30:50;9.30;;;7.90;;
10717;SDS011;13513;42.700;23.124;2023-05-10T06:33:21;12.83;;;8.70;;
10717;SDS011;13513;42.700;23.124;2023-05-10T06:35:52;12.57;;;9.60;;
10717;SDS011;13513;42.700;23.124;2023-05-10T06:38:22;12.73;;;9.57;;
10717;SDS011;13513;42.700;23.124;2023-05-10T06:40:53;10.50;;;8.83;;
10717;SDS011;13513;42.700;23.124;2023-05-10T06:43:24;13.57;;;9.77;;
10717;SDS011;13513;42.700;23.124;2023-05-10T06:45:55;10.20;;;7.37;;
10717;SDS011;13513;42.700;23.124;2023-05-10T06:48:25;7.97;;;6.47;;
10717;SDS011;13513;42.700;23.124;2023-05-10T06:50:56;14.57;;;10.27;;
10717;SDS011;13513;42.700;23.124;2023-05-10T06:53:27;12.20;;;9.93;;
10717;SDS011;13513;42.700;23.124;2023-05-10T06:55:58;11.30;;;9.53;;
10717;SDS011;13513;42.700;23.124;2023-05-10T06:58:30;15.77;;;9.87;;
10717;SDS011;13513;42.700;23.124;2023-05-10T07:01:02;12.97;;;10.10;;
10717;SDS011;13513;42.700;23.124;2023-05-10T07:03:34;17.43;;;10.47;;
10717;SDS011;13513;42.700;23.124;2023-05-10T07:06:05;14.70;;;11.93;;
10717;SDS011;13513;42.700;23.124;2023-05-10T07:08:36;13.57;;;8.13;;
10717;SDS011;13513;42.700;23.124;2023-05-10T07:11:07;13.97;;;9.47;;
10717;SDS011;13513;42.700;23.124;2023-05-10T07:13:37;12.07;;;8.83;;
10717;SDS011;13513;42.700;23.124;2023-05-10T07:16:08;11.10;;;8.67;;
10717;SDS011;13513;42.700;23.124;2023-05-10T07:18:40;14.07;;;10.10;;
10717;SDS011;13513;42.700;23.124;2023-05-10T07:21:11;13.43;;;10.03;;
10717;SDS011;13513;42.700;23.124;2023-05-10T07:23:42;14.93;;;10.70;;
10717;SDS011;13513;42.700;23.124;2023-05-10T07:26:13;10.47;;;7.80;;
10717;SDS011;13513;42.700;23.124;2023-05-10T07:28:44;11.90;;;9.20;;
10717;SDS011;13513;42.700;23.124;2023-05-10T07:31:15;10.77;;;8.87;;
10717;SDS011;13513;42.700;23.124;2023-05-10T07:33:46;13.17;;;9.13;;
10717;SDS011;13513;42.700;23.124;2023-05-10T07:36:17;12.70;;;9.33;;
10717;SDS011;13513;42.700;23.124;2023-05-10T07:38:48;10.30;;;8.60;;
10717;SDS011;13513;42.700;23.124;2023-05-10T07:41:18;13.43;;;7.97;;
10717;SDS011;13513;42.700;23.124;2023-05-10T07:43:48;11.03;;;7.47;;
10717;SDS011;13513;42.700;23.124;2023-05-10T07:46:18;11.30;;;8.67;;
10717;SDS011;13513;42.700;23.124;2023-05-10T07:48:49;12.83;;;10.37;;
10717;SDS011;13513;42.700;23.124;2023-05-10T07:51:20;13.17;;;10.07;;
10717;SDS011;13513;42.700;23.124;2023-05-10T07:53:51;13.77;;;9.50;;
10717;SDS011;13513;42.700;23.124;2023-05-10T07:56:23;11.93;;;8.33;;
10717;SDS011;13513;42.700;23.124;2023-05-10T07:58:56;8.47;;;6.13;;
10717;SDS011;13513;42.700;23.124;2023-05-10T08:01:33;12.27;;;8.50;;
10717;SDS011;13513;42.700;23.124;2023-05-10T08:04:04;10.53;;;8.67;;
10717;SDS011;13513;42.700;23.124;2023-05-10T08:06:35;10.13;;;8.07;;
10717;SDS011;13513;42.700;23.124;2023-05-10T08:09:06;11.13;;;7.53;;
10717;SDS011;13513;42.700;23.124;2023-05-10T08:11:37;10.47;;;8.33;;
10717;SDS011;13513;42.700;23.124;2023-05-10T08:14:08;14.43;;;9.10;;
10717;SDS011;13513;42.700;23.124;2023-05-10T08:16:39;11.23;;;7.53;;
10717;SDS011;13513;42.700;23.124;2023-05-10T08:19:10;11.87;;;9.10;;
10717;SDS011;13513;42.700;23.124;2023-05-10T08:21:41;10.23;;;8.70;;
10717;SDS011;13513;42.700;23.124;2023-05-10T08:24:11;13.27;;;9.63;;
10717;SDS011;13513;42.700;23.124;2023-05-10T08:26:42;12.17;;;9.67;;
10717;SDS011;13513;42.700;23.124;2023-05-10T08:29:13;12.23;;;8.93;;
10717;SDS011;13513;42.700;23.124;2023-05-10T08:31:44;10.10;;;8.33;;
10717;SDS011;13513;42.700;23.124;2023-05-10T08:34:15;12.80;;;8.40;;
10717;SDS011;13513;42.700;23.124;2023-05-10T08:36:45;11.53;;;7.47;;
10717;SDS011;13513;42.700;23.124;2023-05-10T08:39:16;10.33;;;9.03;;
10717;SDS011;13513;42.700;23.124;2023-05-10T08:41:47;14.47;;;9.73;;
10717;SDS011;13513;42.700;23.124;2023-05-10T08:44:19;10.90;;;8.93;;
10717;SDS011;13513;42.700;23.124;2023-05-10T08:46:50;11.87;;;9.37;;
10717;SDS011;13513;42.700;23.124;2023-05-10T08:49:23;11.17;;;8.47;;
10717;SDS011;13513;42.700;23.124;2023-05-10T08:51:56;11.90;;;7.53;;
10717;SDS011;13513;42.700;23.124;2023-05-10T08:54:29;8.37;;;7.40;;
10717;SDS011;13513;42.700;23.124;2023-05-10T08:57:02;8.00;;;5.50;;
10717;SDS011;13513;42.700;23.124;2023-05-10T08:59:33;11.00;;;8.27;;
10717;SDS011;13513;42.700;23.124;2023-05-10T09:02:03;16.33;;;10.80;;
10717;SDS011;13513;42.700;23.124;2023-05-10T09:04:35;9.50;;;8.07;;
10717;SDS011;13513;42.700;23.124;2023-05-10T09:07:06;9.03;;;7.67;;
10717;SDS011;13513;42.700;23.124;2023-05-10T09:09:38;10.93;;;9.10;;
10717;SDS011;13513;42.700;23.124;2023-05-10T09:12:08;9.53;;;8.10;;
10717;SDS011;13513;42.700;23.124;2023-05-10T09:14:39;6.67;;;5.33;;
10717;SDS011;13513;42.700;23.124;2023-05-10T09:17:11;9.20;;;8.27;;
10717;SDS011;13513;42.700;23.124;2023-05-10T09:19:41;9.43;;;8.20;;
10717;SDS011;13513;42.700;23.124;2023-05-10T09:22:14;9.13;;;8.13;;
10717;SDS011;13513;42.700;23.124;2023-05-10T09:24:45;5.37;;;4.50;;
10717;SDS011;13513;42.700;23.124;2023-05-10T09:27:16;9.30;;;7.47;;
10717;SDS011;13513;42.700;23.124;2023-05-10T09:29:47;9.63;;;8.23;;
10717;SDS011;13513;42.700;23.124;2023-05-10T09:32:18;12.73;;;8.23;;
10717;SDS011;13513;42.700;23.124;2023-05-10T09:34:49;10.40;;;8.60;;
10717;SDS011;13513;42.700;23.124;2023-05-10T09:37:20;8.40;;;7.50;;
10717;SDS011;13513;42.700;23.124;2023-05-10T09:39:52;9.17;;;7.87;;
10717;SDS011;13513;42.700;23.124;2023-05-10T09:42:28;9.93;;;8.40;;
10717;SDS011;13513;42.700;23.124;2023-05-10T09:45:02;10.73;;;7.17;;
10717;SDS011;13513;42.700;23.124;2023-05-10T09:47:34;8.40;;;7.20;;
10717;SDS011;13513;42.700;23.124;2023-05-10T09:50:05;10.33;;;7.17;;
10717;SDS011;13513;42.700;23.124;2023-05-10T09:52:49;9.37;;;7.27;;
10717;SDS011;13513;42.700;23.124;2023-05-10T09:55:48;9.57;;;7.63;;
10717;SDS011;13513;42.700;23.124;2023-05-10T09:58:08;10.07;;;7.77;;
10717;SDS011;13513;42.700;23.124;2023-05-10T10:00:40;7.90;;;6.47;;
10717;SDS011;13513;42.700;23.124;2023-05-10T10:03:13;8.13;;;7.33;;
10717;SDS011;13513;42.700;23.124;2023-05-10T10:05:47;8.73;;;7.40;;
10717;SDS011;13513;42.700;23.124;2023-05-10T10:08:17;7.27;;;6.13;;
10717;SDS011;13513;42.700;23.124;2023-05-10T10:10:47;8.60;;;7.70;;
10717;SDS011;13513;42.700;23.124;2023-05-10T10:13:18;8.00;;;7.13;;
10717;SDS011;13513;42.700;23.124;2023-05-10T10:15:49;10.17;;;6.73;;
10717;SDS011;13513;42.700;23.124;2023-05-10T10:18:21;9.63;;;7.90;;
10717;SDS011;13513;42.700;23.124;2023-05-10T10:20:51;8.83;;;7.43;;
10717;SDS011;13513;42.700;23.124;2023-05-10T10:23:22;15.03;;;9.40;;
10717;SDS011;13513;42.700;23.124;2023-05-10T10:25:53;10.17;;;8.00;;
10717;SDS011;13513;42.700;23.124;2023-05-10T10:28:47;11.10;;;9.07;;
10717;SDS011;13513;42.700;23.124;2023-05-10T10:31:26;8.40;;;7.60;;
10717;SDS011;13513;42.700;23.124;2023-05-10T10:34:00;7.77;;;6.97;;
10717;SDS011;13513;42.700;23.124;2023-05-10T10:36:40;7.83;;;7.00;;
10717;SDS011;13513;42.700;23.124;2023-05-10T10:39:15;12.00;;;8.40;;
10717;SDS011;13513;42.700;23.124;2023-05-10T10:41:54;9.70;;;8.70;;
10717;SDS011;13513;42.700;23.124;2023-05-10T10:50:01;8.40;;;7.37;;
10717;SDS011;13513;42.700;23.124;2023-05-10T10:52:31;11.67;;;8.10;;
10717;SDS011;13513;42.700;23.124;2023-05-10T10:55:05;9.93;;;7.20;;
10717;SDS011;13513;42.700;23.124;2023-05-10T11:00:21;7.73;;;7.00;;
10717;SDS011;13513;42.700;23.124;2023-05-10T11:03:08;14.77;;;8.53;;
10717;SDS011;13513;42.700;23.124;2023-05-10T11:05:46;12.37;;;8.70;;
10717;SDS011;13513;42.700;23.124;2023-05-10T11:08:30;12.33;;;7.20;;
10717;SDS011;13513;42.700;23.124;2023-05-10T11:11:04;11.97;;;8.33;;
10717;SDS011;13513;42.700;23.124;2023-05-10T11:13:45;12.43;;;9.40;;
10717;SDS011;13513;42.700;23.124;2023-05-10T11:16:18;7.47;;;6.57;;
10717;SDS011;13513;42.700;23.124;2023-05-10T11:19:04;9.37;;;7.17;;
10717;SDS011;13513;42.700;23.124;2023-05-10T11:21:46;7.83;;;6.43;;
10717;SDS011;13513;42.700;23.124;2023-05-10T11:24:22;6.90;;;6.20;;
10717;SDS011;13513;42.700;23.124;2023-05-10T11:26:54;8.07;;;7.13;;
10717;SDS011;13513;42.700;23.124;2023-05-10T11:29:25;9.83;;;7.00;;
10717;SDS011;13513;42.700;23.124;2023-05-10T11:31:56;8.37;;;7.43;;
10717;SDS011;13513;42.700;23.124;2023-05-10T11:34:28;7.20;;;6.50;;
10717;SDS011;13513;42.700;23.124;2023-05-10T11:37:00;10.03;;;7.77;;
10717;SDS011;13513;42.700;23.124;2023-05-10T11:39:35;7.77;;;6.83;;
10717;SDS011;13513;42.700;23.124;2023-05-10T11:42:06;13.80;;;9.03;;
10717;SDS011;13513;42.700;23.124;2023-05-10T11:44:36;9.43;;;7.60;;
10717;SDS011;13513;42.700;23.124;2023-05-10T11:47:07;8.60;;;7.17;;
10717;SDS011;13513;42.700;23.124;2023-05-10T11:49:42;13.60;;;7.93;;
10717;SDS011;13513;42.700;23.124;2023-05-10T11:52:14;8.33;;;6.87;;
10717;SDS011;13513;42.700;23.124;2023-05-10T11:54:53;16.97;;;9.93;;
10717;SDS011;13513;42.700;23.124;2023-05-10T11:57:26;24.80;;;11.43;;
10717;SDS011;13513;42.700;23.124;2023-05-10T11:59:56;14.50;;;9.13;;
10717;SDS011;13513;42.700;23.124;2023-05-10T12:02:28;12.13;;;7.67;;
10717;SDS011;13513;42.700;23.124;2023-05-10T12:05:03;7.87;;;6.20;;
10717;SDS011;13513;42.700;23.124;2023-05-10T12:07:35;9.90;;;6.70;;
10717;SDS011;13513;42.700;23.124;2023-05-10T12:10:12;7.50;;;6.70;;
10717;SDS011;13513;42.700;23.124;2023-05-10T12:12:45;16.40;;;8.83;;
10717;SDS011;13513;42.700;23.124;2023-05-10T12:15:20;11.13;;;6.50;;
10717;SDS011;13513;42.700;23.124;2023-05-10T12:17:53;8.10;;;6.00;;
10717;SDS011;13513;42.700;23.124;2023-05-10T12:20:27;9.43;;;6.97;;
10717;SDS011;13513;42.700;23.124;2023-05-10T12:22:58;7.17;;;6.47;;
10717;SDS011;13513;42.700;23.124;2023-05-10T12:25:30;8.43;;;7.00;;
10717;SDS011;13513;42.700;23.124;2023-05-10T12:28:05;10.70;;;7.77;;
10717;SDS011;13513;42.700;23.124;2023-05-10T12:30:38;10.67;;;7.87;;
10717;SDS011;13513;42.700;23.124;2023-05-10T12:33:09;10.60;;;7.37;;
10717;SDS011;13513;42.700;23.124;2023-05-10T12:35:48;8.93;;;6.97;;
10717;SDS011;13513;42.700;23.124;2023-05-10T12:38:25;8.03;;;7.23;;
10717;SDS011;13513;42.700;23.124;2023-05-10T12:40:59;8.83;;;7.37;;
10717;SDS011;13513;42.700;23.124;2023-05-10T12:43:31;14.20;;;7.63;;
10717;SDS011;13513;42.700;23.124;2023-05-10T12:46:08;7.97;;;7.03;;
10717;SDS011;13513;42.700;23.124;2023-05-10T12:48:39;13.23;;;7.83;;
10717;SDS011;13513;42.700;23.124;2023-05-10T12:51:11;15.00;;;8.33;;
10717;SDS011;13513;42.700;23.124;2023-05-10T12:53:42;12.40;;;8.30;;
10717;SDS011;13513;42.700;23.124;2023-05-10T12:56:13;16.77;;;10.10;;
10717;SDS011;13513;42.700;23.124;2023-05-10T12:58:44;10.93;;;7.90;;
10717;SDS011;13513;42.700;23.124;2023-05-10T13:01:15;8.20;;;7.40;;
10717;SDS011;13513;42.700;23.124;2023-05-10T13:03:46;10.27;;;7.97;;
10717;SDS011;13513;42.700;23.124;2023-05-10T13:06:16;9.07;;;7.93;;
10717;SDS011;13513;42.700;23.124;2023-05-10T13:08:47;9.03;;;7.43;;
10717;SDS011;13513;42.700;23.124;2023-05-10T13:11:18;10.50;;;8.47;;
10717;SDS011;13513;42.700;23.124;2023-05-10T13:13:49;9.97;;;8.33;;
10717;SDS011;13513;42.700;23.124;2023-05-10T13:16:20;7.03;;;5.27;;
10717;SDS011;13513;42.700;23.124;2023-05-10T13:18:50;9.50;;;6.90;;
10717;SDS011;13513;42.700;23.124;2023-05-10T13:21:21;10.27;;;8.03;;
10717;SDS011;13513;42.700;23.124;2023-05-10T13:23:52;10.17;;;7.83;;
10717;SDS011;13513;42.700;23.124;2023-05-10T13:26:24;9.10;;;7.40;;
10717;SDS011;13513;42.700;23.124;2023-05-10T13:28:55;9.40;;;6.93;;
10717;SDS011;13513;42.700;23.124;2023-05-10T13:31:26;8.80;;;7.23;;
10717;SDS011;13513;42.700;23.124;2023-05-10T13:33:56;7.93;;;6.67;;
10717;SDS011;13513;42.700;23.124;2023-05-10T13:36:27;9.37;;;7.47;;
10717;SDS011;13513;42.700;23.124;2023-05-10T13:38:58;16.57;;;10.87;;
10717;SDS011;13513;42.700;23.124;2023-05-10T13:41:29;11.53;;;9.20;;
10717;SDS011;13513;42.700;23.124;2023-05-10T13:44:00;8.53;;;7.23;;
10717;SDS011;13513;42.700;23.124;2023-05-10T13:46:31;9.43;;;7.27;;
10717;SDS011;13513;42.700;23.124;2023-05-10T13:49:02;7.20;;;6.10;;
10717;SDS011;13513;42.700;23.124;2023-05-10T13:51:33;7.20;;;6.50;;
10717;SDS011;13513;42.700;23.124;2023-05-10T13:54:04;8.57;;;6.80;;
10717;SDS011;13513;42.700;23.124;2023-05-10T13:56:36;11.07;;;8.33;;
10717;SDS011;13513;42.700;23.124;2023-05-10T13:59:08;12.20;;;8.57;;
10717;SDS011;13513;42.700;23.124;2023-05-10T14:01:42;8.97;;;6.60;;
10717;SDS011;13513;42.700;23.124;2023-05-10T14:04:13;10.17;;;8.53;;
10717;SDS011;13513;42.700;23.124;2023-05-10T14:06:44;8.80;;;7.90;;
10717;SDS011;13513;42.700;23.124;2023-05-10T14:09:14;16.50;;;11.43;;
10717;SDS011;13513;42.700;23.124;2023-05-10T14:11:45;13.13;;;9.13;;
10717;SDS011;13513;42.700;23.124;2023-05-10T14:14:16;9.93;;;7.37;;
10717;SDS011;13513;42.700;23.124;2023-05-10T14:16:47;11.70;;;7.13;;
10717;SDS011;13513;42.700;23.124;2023-05-10T14:19:18;9.93;;;7.57;;
10717;SDS011;13513;42.700;23.124;2023-05-10T14:21:49;8.87;;;7.93;;
10717;SDS011;13513;42.700;23.124;2023-05-10T14:24:20;10.73;;;7.83;;
10717;SDS011;13513;42.700;23.124;2023-05-10T14:26:51;11.30;;;7.63;;
10717;SDS011;13513;42.700;23.124;2023-05-10T14:29:21;14.27;;;7.90;;
10717;SDS011;13513;42.700;23.124;2023-05-10T14:31:52;14.83;;;10.30;;
10717;SDS011;13513;42.700;23.124;2023-05-10T14:34:23;11.87;;;8.80;;
10717;SDS011;13513;42.700;23.124;2023-05-10T14:36:55;12.17;;;8.40;;
10717;SDS011;13513;42.700;23.124;2023-05-10T14:39:24;11.00;;;7.80;;
10717;SDS011;13513;42.700;23.124;2023-05-10T14:41:55;14.23;;;9.73;;
10717;SDS011;13513;42.700;23.124;2023-05-10T14:44:26;12.77;;;9.13;;
10717;SDS011;13513;42.700;23.124;2023-05-10T14:46:57;11.23;;;8.93;;
10717;SDS011;13513;42.700;23.124;2023-05-10T14:49:29;11.37;;;8.17;;
10717;SDS011;13513;42.700;23.124;2023-05-10T14:51:58;15.43;;;10.50;;
10717;SDS011;13513;42.700;23.124;2023-05-10T14:54:28;10.30;;;8.07;;
10717;SDS011;13513;42.700;23.124;2023-05-10T14:56:59;10.27;;;8.37;;
10717;SDS011;13513;42.700;23.124;2023-05-10T14:59:30;11.93;;;8.77;;
10717;SDS011;13513;42.700;23.124;2023-05-10T15:02:01;11.17;;;9.03;;
10717;SDS011;13513;42.700;23.124;2023-05-10T15:04:32;12.23;;;9.10;;
10717;SDS011;13513;42.700;23.124;2023-05-10T15:07:03;11.93;;;9.37;;
10717;SDS011;13513;42.700;23.124;2023-05-10T15:09:34;10.13;;;8.93;;
10717;SDS011;13513;42.700;23.124;2023-05-10T15:12:05;11.43;;;8.83;;
10717;SDS011;13513;42.700;23.124;2023-05-10T15:14:36;12.20;;;8.43;;
10717;SDS011;13513;42.700;23.124;2023-05-10T15:17:06;10.70;;;8.20;;
10717;SDS011;13513;42.700;23.124;2023-05-10T15:19:36;10.97;;;9.23;;
10717;SDS011;13513;42.700;23.124;2023-05-10T15:22:07;11.07;;;8.40;;